createdAt,value
2019-02-23T00:04:06.010Z,7.60
2019-02-23T00:09:08.137Z,7.56
2019-02-23T00:14:10.382Z,7.37
2019-02-23T00:19:12.410Z,7.36
2019-02-23T00:24:17.624Z,7.39
2019-02-23T00:29:19.678Z,7.24
2019-02-23T00:34:25.569Z,7.19
2019-02-23T00:39:27.640Z,7.09
2019-02-23T00:44:32.197Z,6.99
2019-02-23T00:49:36.507Z,7.03
2019-02-23T00:54:40.846Z,6.97
2019-02-23T00:59:43.153Z,6.89
2019-02-23T01:04:45.214Z,6.87
2019-02-23T01:09:47.244Z,6.76
2019-02-23T01:14:51.825Z,6.59
2019-02-23T01:19:55.636Z,6.78
2019-02-23T01:24:59.315Z,6.72
2019-02-23T01:30:02.771Z,6.67
2019-02-23T01:35:04.999Z,6.83
2019-02-23T01:40:11.762Z,6.70
2019-02-23T01:45:14.301Z,6.68
2019-02-23T01:50:16.363Z,6.55
2019-02-23T01:55:22.956Z,6.73
2019-02-23T02:00:25.437Z,6.48
2019-02-23T02:05:30.428Z,6.46
2019-02-23T02:10:34.025Z,6.32
2019-02-23T02:15:38.782Z,6.20
2019-02-23T02:20:40.949Z,6.04
2019-02-23T02:25:43.047Z,6.12
2019-02-23T02:30:48.274Z,6.19
2019-02-23T02:35:57.392Z,6.16
2019-02-23T02:40:59.675Z,5.93
2019-02-23T02:46:01.699Z,5.90
2019-02-23T02:51:03.760Z,5.80
2019-02-23T02:56:05.857Z,5.74
2019-02-23T03:01:08.243Z,5.78
2019-02-23T03:06:10.300Z,5.69
2019-02-23T03:11:12.510Z,5.62
2019-02-23T03:16:14.587Z,5.69
2019-02-23T03:21:19.795Z,5.62
2019-02-23T03:26:21.899Z,5.51
2019-02-23T03:31:27.623Z,5.49
2019-02-23T03:36:29.640Z,5.50
2019-02-23T03:41:32.896Z,5.46
2019-02-23T03:46:36.558Z,5.36
2019-02-23T03:51:41.294Z,5.42
2019-02-23T03:56:44.742Z,5.20
2019-02-23T04:01:54.880Z,5.36
2019-02-23T04:06:58.272Z,5.43
2019-02-23T04:12:00.437Z,5.28
2019-02-23T04:17:02.576Z,5.24
2019-02-23T04:22:04.831Z,5.38
2019-02-23T04:27:06.874Z,5.37
2019-02-23T04:32:09.422Z,5.33
2019-02-23T04:37:11.442Z,5.32
2019-02-23T04:42:13.486Z,5.28
2019-02-23T04:47:15.504Z,5.38
2019-02-23T04:52:17.608Z,5.33
2019-02-23T04:57:19.696Z,5.24
2019-02-23T05:02:21.887Z,5.13
2019-02-23T05:07:27.631Z,5.16
2019-02-23T05:12:29.853Z,5.02
2019-02-23T05:17:31.893Z,5.15
2019-02-23T05:22:33.981Z,5.27
2019-02-23T05:27:36.100Z,5.17
2019-02-23T05:32:38.277Z,5.13
2019-02-23T05:37:40.385Z,5.07
2019-02-23T05:42:47.662Z,5.07
2019-02-23T05:47:49.690Z,4.97
2019-02-23T05:52:51.769Z,4.84
2019-02-23T05:57:53.784Z,4.79
2019-02-23T06:02:57.331Z,4.79
2019-02-23T06:07:59.675Z,4.72
2019-02-23T06:13:02.893Z,4.76
2019-02-23T06:18:12.471Z,4.76
2019-02-23T06:23:17.611Z,4.79
2019-02-23T06:28:22.226Z,4.58
2019-02-23T06:33:27.044Z,4.46
2019-02-23T06:38:29.084Z,4.43
2019-02-23T06:43:32.814Z,4.45
2019-02-23T06:48:34.945Z,4.52
2019-02-23T06:53:41.654Z,4.50
2019-02-23T06:58:45.391Z,4.55
2019-02-23T07:03:47.472Z,4.49
2019-02-23T07:08:49.558Z,4.50
2019-02-23T07:13:51.694Z,4.55
2019-02-23T07:18:53.736Z,4.75
2019-02-23T07:24:00.590Z,4.91
2019-02-23T07:29:04.391Z,5.03
2019-02-23T07:34:11.640Z,5.12
2019-02-23T07:39:13.940Z,5.37
2019-02-23T07:44:16.188Z,5.35
2019-02-23T07:49:18.217Z,5.44
2019-02-23T07:54:22.647Z,5.73
2019-02-23T07:59:24.751Z,5.89
2019-02-23T08:04:26.915Z,5.83
2019-02-23T08:09:31.556Z,5.93
2019-02-23T08:14:33.534Z,6.04
2019-02-23T08:19:35.572Z,6.25
2019-02-23T08:24:37.910Z,6.34
2019-02-23T08:29:39.907Z,6.30
2019-02-23T08:34:42.167Z,6.51
2019-02-23T08:39:44.309Z,6.67
2019-02-23T08:44:46.322Z,6.75
2019-02-23T08:49:50.210Z,6.75
2019-02-23T08:54:52.250Z,6.84
2019-02-23T08:59:54.325Z,6.82
2019-02-23T09:04:56.473Z,6.98
2019-02-23T09:09:58.509Z,6.83
2019-02-23T09:15:03.819Z,6.98
2019-02-23T09:20:06.033Z,7.17
2019-02-23T09:25:12.675Z,7.19
2019-02-23T09:30:23.045Z,7.37
2019-02-23T09:35:25.104Z,7.53
2019-02-23T09:40:32.049Z,7.34
2019-02-23T09:45:34.091Z,7.56
2019-02-23T09:50:36.521Z,7.80
2019-02-23T09:55:40.439Z,7.87
2019-02-23T10:00:44.341Z,7.93
2019-02-23T10:05:46.358Z,8.29
2019-02-23T10:10:48.518Z,8.12
2019-02-23T10:15:52.079Z,8.33
2019-02-23T10:20:59.025Z,8.83
2019-02-23T10:26:02.298Z,8.61
2019-02-23T10:31:05.534Z,8.68
2019-02-23T10:36:07.579Z,8.53
2019-02-23T10:41:09.657Z,8.95
2019-02-23T10:46:12.248Z,9.05
2019-02-23T10:51:17.666Z,9.13
2019-02-23T10:56:19.797Z,9.33
2019-02-23T11:01:22.032Z,9.34
2019-02-23T11:06:24.066Z,9.42
2019-02-23T11:11:26.255Z,9.33
2019-02-23T11:16:28.266Z,9.88
2019-02-23T11:21:31.750Z,10.04
2019-02-23T11:26:34.288Z,10.03
2019-02-23T11:31:36.796Z,9.76
2019-02-23T11:36:38.807Z,9.96
2019-02-23T11:41:40.862Z,10.41
2019-02-23T11:46:59.204Z,10.05
2019-02-23T11:51:49.578Z,9.92
2019-02-23T11:56:51.707Z,10.22
2019-02-23T12:01:55.133Z,9.86
2019-02-23T12:06:57.209Z,10.31
2019-02-23T12:11:59.548Z,10.35
2019-02-23T12:17:01.540Z,10.40
2019-02-23T12:22:12.063Z,10.55
2019-02-23T12:27:08.063Z,10.97
2019-02-23T12:32:15.875Z,10.63
2019-02-23T12:37:19.684Z,10.64
2019-02-23T12:42:21.695Z,10.65
2019-02-23T12:47:23.699Z,10.89
2019-02-23T12:52:28.731Z,11.06
2019-02-23T12:57:30.792Z,11.15
2019-02-23T13:02:33.006Z,11.41
2019-02-23T13:07:39.065Z,11.27
2019-02-23T13:13:03.115Z,11.55
2019-02-23T13:18:36.769Z,11.48
2019-02-23T13:24:04.433Z,11.68
2019-02-23T13:29:52.092Z,11.81
2019-02-23T13:35:40.986Z,11.32
2019-02-23T13:41:11.630Z,11.62
2019-02-23T13:46:48.320Z,11.50
2019-02-23T13:52:18.612Z,11.40
2019-02-23T13:58:01.892Z,11.40
2019-02-23T14:03:44.551Z,11.25
2019-02-23T14:09:33.671Z,11.46
2019-02-23T14:15:03.366Z,11.68
2019-02-23T14:20:48.253Z,11.58
2019-02-23T14:26:41.176Z,11.43
2019-02-23T14:32:04.743Z,11.68
2019-02-23T14:37:38.320Z,11.87
2019-02-23T14:43:25.180Z,11.65
2019-02-23T14:49:07.425Z,11.59
2019-02-23T14:55:00.722Z,11.77
2019-02-23T15:00:50.895Z,11.55
2019-02-23T15:06:24.247Z,11.56
2019-02-23T15:11:47.323Z,11.47
2019-02-23T15:17:31.960Z,11.52
2019-02-23T15:23:00.235Z,11.77
2019-02-23T15:28:37.608Z,11.57
2019-02-23T15:34:22.490Z,11.61
2019-02-23T15:39:54.505Z,11.44
2019-02-23T15:45:57.160Z,11.37
2019-02-23T15:51:02.339Z,12.93
2019-02-23T15:56:12.708Z,12.93
2019-02-23T16:01:15.054Z,11.81
2019-02-23T16:06:18.355Z,11.41
2019-02-23T16:11:21.592Z,11.42
2019-02-23T16:16:23.652Z,11.48
2019-02-23T16:21:25.744Z,11.23
2019-02-23T16:26:27.754Z,11.11
2019-02-23T16:31:32.637Z,11.00
2019-02-23T16:36:34.652Z,10.91
2019-02-23T16:41:40.449Z,10.60
2019-02-23T16:46:46.463Z,10.53
2019-02-23T16:51:51.722Z,10.56
2019-02-23T16:56:53.779Z,10.36
2019-02-23T17:01:57.395Z,10.22
2019-02-23T17:06:59.652Z,10.04
2019-02-23T17:12:02.024Z,9.99
2019-02-23T17:17:04.058Z,9.81
2019-02-23T17:22:06.059Z,9.72
2019-02-23T17:27:10.125Z,9.66
2019-02-23T17:32:16.331Z,9.57
2019-02-23T17:37:20.288Z,9.55
2019-02-23T17:42:28.094Z,9.26
2019-02-23T17:47:26.294Z,9.12
2019-02-23T17:52:29.193Z,9.04
2019-02-23T17:57:34.150Z,8.76
2019-02-23T18:02:38.224Z,8.67
2019-02-23T18:07:40.813Z,8.72
2019-02-23T18:12:43.326Z,8.67
2019-02-23T18:17:45.380Z,8.49
2019-02-23T18:22:48.516Z,8.65
2019-02-23T18:27:53.669Z,8.47
2019-02-23T18:32:55.753Z,8.51
2019-02-23T18:38:02.825Z,8.58
2019-02-23T18:43:07.504Z,8.64
2019-02-23T18:48:12.588Z,8.32
2019-02-23T18:53:19.909Z,8.34
2019-02-23T18:58:23.273Z,8.44
2019-02-23T19:03:25.510Z,8.27
2019-02-23T19:08:28.921Z,8.14
2019-02-23T19:13:31.233Z,8.10
2019-02-23T19:18:33.354Z,8.02
2019-02-23T19:23:35.644Z,7.98
2019-02-23T19:28:43.168Z,7.72
2019-02-23T19:33:47.739Z,7.77
2019-02-23T19:38:52.676Z,7.75
2019-02-23T19:43:57.162Z,7.55
2019-02-23T19:48:59.303Z,7.51
2019-02-23T19:54:02.754Z,7.26
2019-02-23T19:59:08.085Z,7.13
2019-02-23T20:04:11.493Z,7.07
2019-02-23T20:09:13.544Z,7.09
2019-02-23T20:14:15.700Z,6.98
2019-02-23T20:19:19.650Z,6.85
2019-02-23T20:24:21.902Z,6.78
2019-02-23T20:29:26.123Z,6.80
2019-02-23T20:34:32.933Z,6.69
2019-02-23T20:39:34.986Z,6.58
2019-02-23T20:44:38.226Z,6.60
2019-02-23T20:49:40.327Z,6.53
2019-02-23T20:54:43.851Z,6.54
2019-02-23T20:59:48.831Z,6.42
2019-02-23T21:04:52.807Z,6.69
2019-02-23T21:09:55.063Z,6.60
2019-02-23T21:15:00.924Z,6.74
2019-02-23T21:20:03.150Z,6.89
2019-02-23T21:25:07.978Z,6.91
2019-02-23T21:30:10.522Z,7.15
2019-02-23T21:35:15.170Z,7.19
2019-02-23T21:40:19.956Z,7.24
2019-02-23T21:45:34.766Z,7.19
2019-02-23T21:50:32.530Z,7.05
2019-02-23T21:55:37.432Z,7.08
2019-02-23T22:00:42.482Z,6.87
2019-02-23T22:05:46.725Z,6.99
2019-02-23T22:10:48.797Z,6.97
2019-02-23T22:15:53.245Z,6.97
2019-02-23T22:20:55.546Z,6.70
2019-02-23T22:25:57.565Z,6.66
2019-02-23T22:31:01.858Z,6.78
2019-02-23T22:36:08.777Z,6.64
2019-02-23T22:41:14.199Z,6.48
2019-02-23T22:46:18.770Z,6.53
2019-02-23T22:51:21.087Z,6.34
2019-02-23T22:56:26.213Z,6.05
2019-02-23T23:01:28.521Z,6.02
2019-02-23T23:06:33.306Z,6.04
2019-02-23T23:11:39.929Z,5.95
2019-02-23T23:16:42.172Z,6.17
2019-02-23T23:21:48.124Z,5.90
2019-02-23T23:26:52.076Z,5.79
2019-02-23T23:31:56.134Z,5.81
2019-02-23T23:37:00.879Z,5.80
2019-02-23T23:42:03.187Z,5.73
2019-02-23T23:47:05.276Z,5.52
2019-02-23T23:52:08.436Z,5.64
2019-02-23T23:57:10.486Z,5.54
